PWSweather.com
Personal Weather Stations
Station Observations
TXALLEN104
Watters Crossing, Allen, TX 75013

Watters CrossingAllen, TX 75013

Lat: 33.096, Lon: -96.697

Elevation: 672

Station Type: Davis Vantage Pro2 Plus

http://www.allenweather.com

High Low Average
Temperature 53.2°F11.8°C 28.8°F-1.8°C 41.9°F5.5°C
Dew Point 35.8°F2.1°C 24.7°F-4.1°C 30.9°F-0.6°C
Winds 3.0 mph 4.8 kmh Calm Calm 1.0 mph S1.6 kmh S
Wind Gusts 9.0 mph14.5 kmh -- 3.0 mph4.8 kmh
Humidity 86% 45% 66%
Pressure 30.48 in1032.2 mb 30.25 in1024.4 mb -
Precipitation 0.00 in0.0 mm - -
Hour Temp Dew Point Humidity Winds Wind Gusts Pressure Precip Precip Rate Daily Precip Total
12:00 AM 37.3°F2.9°C 28.8°F-1.8°C 71% 2.0 mph NNW3.2 kmh NNW 4.0 mph6.4 kmh 30.42 in1030.1 mb 0.00 in0.0 mm 0.00 in0.0 mm 0.00 in0.0 mm
12:05 AM 37.2°F2.9°C 28.7°F-1.8°C 71% 2.0 mph 3.2 kmh 5.0 mph8.0 kmh 30.42 in1030.1 mb 0.00 in0.0 mm 0.00 in0.0 mm 0.00 in0.0 mm
12:10 AM 37.1°F2.8°C 28.6°F-1.9°C 71% 1.0 mph NW1.6 kmh NW 2.0 mph3.2 kmh 30.42 in1030.1 mb 0.00 in0.0 mm 0.00 in0.0 mm 0.00 in0.0 mm
12:15 AM 36.9°F2.7°C 28.7°F-1.8°C 72% Calm Calm 3.0 mph4.8 kmh 30.42 in1030.1 mb 0.00 in0.0 mm 0.00 in0.0 mm 0.00 in0.0 mm
12:20 AM 36.7°F2.6°C 28.5°F-1.9°C 72% Calm Calm 1.0 mph1.6 kmh 30.42 in1030.1 mb 0.00 in0.0 mm 0.00 in0.0 mm 0.00 in0.0 mm
12:25 AM 36.5°F2.5°C 28.7°F-1.8°C 73% 1.0 mph NW1.6 kmh NW 2.0 mph3.2 kmh 30.42 in1030.1 mb 0.00 in0.0 mm 0.00 in0.0 mm 0.00 in0.0 mm
12:30 AM 36.4°F2.4°C 28.6°F-1.9°C 73% 1.0 mph NW1.6 kmh NW 2.0 mph3.2 kmh 30.41 in1029.8 mb 0.00 in0.0 mm 0.00 in0.0 mm 0.00 in0.0 mm
12:35 AM 36.1°F2.3°C 28.3°F-2.1°C 73% Calm Calm -- 30.41 in1029.8 mb 0.00 in0.0 mm 0.00 in0.0 mm 0.00 in0.0 mm
12:40 AM 36.0°F2.2°C 28.5°F-1.9°C 74% Calm Calm 3.0 mph4.8 kmh 30.41 in1029.8 mb 0.00 in0.0 mm 0.00 in0.0 mm 0.00 in0.0 mm
12:45 AM 35.9°F2.2°C 28.4°F-2.0°C 74% Calm Calm 2.0 mph3.2 kmh 30.41 in1029.8 mb 0.00 in0.0 mm 0.00 in0.0 mm 0.00 in0.0 mm
12:50 AM 35.8°F2.1°C 28.3°F-2.1°C 74% 1.0 mph NNW1.6 kmh NNW 3.0 mph4.8 kmh 30.41 in1029.8 mb 0.00 in0.0 mm 0.00 in0.0 mm 0.00 in0.0 mm
12:55 AM 35.7°F2.1°C 28.2°F-2.1°C 74% 1.0 mph 1.6 kmh 4.0 mph6.4 kmh 30.42 in1030.1 mb 0.00 in0.0 mm 0.00 in0.0 mm 0.00 in0.0 mm
01:00 AM 35.6°F2.0°C 28.5°F-1.9°C 75% Calm Calm 3.0 mph4.8 kmh 30.42 in1030.1 mb 0.00 in0.0 mm 0.00 in0.0 mm 0.00 in0.0 mm
01:05 AM 35.6°F2.0°C 28.5°F-1.9°C 75% Calm Calm -- 30.42 in1030.1 mb 0.00 in0.0 mm 0.00 in0.0 mm 0.00 in0.0 mm
01:10 AM 35.5°F1.9°C 28.4°F-2.0°C 75% Calm Calm -- 30.42 in1030.1 mb 0.00 in0.0 mm 0.00 in0.0 mm 0.00 in0.0 mm
01:15 AM 35.5°F1.9°C 28.4°F-2.0°C 75% 1.0 mph NNW1.6 kmh NNW 4.0 mph6.4 kmh 30.42 in1030.1 mb 0.00 in0.0 mm 0.00 in0.0 mm 0.00 in0.0 mm
01:20 AM 35.3°F1.8°C 28.2°F-2.1°C 75% 2.0 mph 3.2 kmh 4.0 mph6.4 kmh 30.42 in1030.1 mb 0.00 in0.0 mm 0.00 in0.0 mm 0.00 in0.0 mm
01:25 AM 35.3°F1.8°C 28.2°F-2.1°C 75% 1.0 mph WNW1.6 kmh WNW 5.0 mph8.0 kmh 30.42 in1030.1 mb 0.00 in0.0 mm 0.00 in0.0 mm 0.00 in0.0 mm
01:30 AM 35.3°F1.8°C 28.2°F-2.1°C 75% 2.0 mph NW3.2 kmh NW 8.0 mph12.9 kmh 30.42 in1030.1 mb 0.00 in0.0 mm 0.00 in0.0 mm 0.00 in0.0 mm
01:35 AM 35.2°F1.8°C 28.1°F-2.2°C 75% 1.0 mph NW1.6 kmh NW 4.0 mph6.4 kmh 30.42 in1030.1 mb 0.00 in0.0 mm 0.00 in0.0 mm 0.00 in0.0 mm
01:40 AM 35.1°F1.7°C 28.3°F-2.1°C 76% 2.0 mph NNW3.2 kmh NNW 8.0 mph12.9 kmh 30.42 in1030.1 mb 0.00 in0.0 mm 0.00 in0.0 mm 0.00 in0.0 mm
01:45 AM 34.9°F1.6°C 28.1°F-2.2°C 76% Calm Calm -- 30.42 in1030.1 mb 0.00 in0.0 mm 0.00 in0.0 mm 0.00 in0.0 mm
01:50 AM 34.8°F1.6°C 28.0°F-2.2°C 76% Calm Calm -- 30.42 in1030.1 mb 0.00 in0.0 mm 0.00 in0.0 mm 0.00 in0.0 mm
01:55 AM 34.7°F1.5°C 27.9°F-2.3°C 76% Calm Calm -- 30.43 in1030.5 mb 0.00 in0.0 mm 0.00 in0.0 mm 0.00 in0.0 mm
02:00 AM 34.5°F1.4°C 27.7°F-2.4°C 76% Calm Calm -- 30.43 in1030.5 mb 0.00 in0.0 mm 0.00 in0.0 mm 0.00 in0.0 mm
02:05 AM 34.4°F1.3°C 27.6°F-2.4°C 76% Calm Calm -- 30.42 in1030.1 mb 0.00 in0.0 mm 0.00 in0.0 mm 0.00 in0.0 mm
02:10 AM 34.4°F1.3°C 28.0°F-2.2°C 77% Calm Calm -- 30.43 in1030.5 mb 0.00 in0.0 mm 0.00 in0.0 mm 0.00 in0.0 mm
02:15 AM 34.3°F1.3°C 27.5°F-2.5°C 76% Calm Calm -- 30.43 in1030.5 mb 0.00 in0.0 mm 0.00 in0.0 mm 0.00 in0.0 mm
02:20 AM 34.2°F1.2°C 27.4°F-2.6°C 76% Calm Calm -- 30.43 in1030.5 mb 0.00 in0.0 mm 0.00 in0.0 mm 0.00 in0.0 mm
02:25 AM 34.1°F1.2°C 27.3°F-2.6°C 76% Calm Calm -- 30.43 in1030.5 mb 0.00 in0.0 mm 0.00 in0.0 mm 0.00 in0.0 mm
02:30 AM 34.0°F1.1°C 27.2°F-2.7°C 76% Calm Calm -- 30.43 in1030.5 mb 0.00 in0.0 mm 0.00 in0.0 mm 0.00 in0.0 mm
02:35 AM 33.9°F1.1°C 27.5°F-2.5°C 77% Calm Calm -- 30.43 in1030.5 mb 0.00 in0.0 mm 0.00 in0.0 mm 0.00 in0.0 mm
02:40 AM 33.7°F0.9°C 27.3°F-2.6°C 77% Calm Calm -- 30.43 in1030.5 mb 0.00 in0.0 mm 0.00 in0.0 mm 0.00 in0.0 mm
02:45 AM 33.6°F0.9°C 27.2°F-2.7°C 77% Calm Calm -- 30.43 in1030.5 mb 0.00 in0.0 mm 0.00 in0.0 mm 0.00 in0.0 mm
02:50 AM 33.5°F0.8°C 27.1°F-2.7°C 77% Calm Calm -- 30.43 in1030.5 mb 0.00 in0.0 mm 0.00 in0.0 mm 0.00 in0.0 mm
02:55 AM 33.4°F0.8°C 27.0°F-2.8°C 77% Calm Calm -- 30.43 in1030.5 mb 0.00 in0.0 mm 0.00 in0.0 mm 0.00 in0.0 mm
03:00 AM 33.3°F0.7°C 26.9°F-2.8°C 77% Calm Calm -- 30.42 in1030.1 mb 0.00 in0.0 mm 0.00 in0.0 mm 0.00 in0.0 mm
03:05 AM 33.2°F0.7°C 26.8°F-2.9°C 77% Calm Calm -- 30.42 in1030.1 mb 0.00 in0.0 mm 0.00 in0.0 mm 0.00 in0.0 mm
03:10 AM 33.2°F0.7°C 26.8°F-2.9°C 77% Calm Calm -- 30.43 in1030.5 mb 0.00 in0.0 mm 0.00 in0.0 mm 0.00 in0.0 mm
03:15 AM 33.0°F0.6°C 26.9°F-2.8°C 78% Calm Calm -- 30.43 in1030.5 mb 0.00 in0.0 mm 0.00 in0.0 mm 0.00 in0.0 mm
03:20 AM 32.9°F0.5°C 26.8°F-2.9°C 78% Calm Calm -- 30.43 in1030.5 mb 0.00 in0.0 mm 0.00 in0.0 mm 0.00 in0.0 mm
03:25 AM 32.9°F0.5°C 26.8°F-2.9°C 78% Calm Calm -- 30.43 in1030.5 mb 0.00 in0.0 mm 0.00 in0.0 mm 0.00 in0.0 mm
03:30 AM 32.8°F0.4°C 26.7°F-2.9°C 78% Calm Calm -- 30.42 in1030.1 mb 0.00 in0.0 mm 0.00 in0.0 mm 0.00 in0.0 mm
03:35 AM 32.7°F0.4°C 26.6°F-3.0°C 78% Calm Calm -- 30.42 in1030.1 mb 0.00 in0.0 mm 0.00 in0.0 mm 0.00 in0.0 mm
03:40 AM 32.6°F0.3°C 26.5°F-3.1°C 78% Calm Calm -- 30.43 in1030.5 mb 0.00 in0.0 mm 0.00 in0.0 mm 0.00 in0.0 mm
03:45 AM 32.6°F0.3°C 26.5°F-3.1°C 78% Calm Calm -- 30.43 in1030.5 mb 0.00 in0.0 mm 0.00 in0.0 mm 0.00 in0.0 mm
03:50 AM 32.4°F0.2°C 26.3°F-3.2°C 78% Calm Calm -- 30.43 in1030.5 mb 0.00 in0.0 mm 0.00 in0.0 mm 0.00 in0.0 mm
03:55 AM 32.3°F0.2°C 26.2°F-3.2°C 78% Calm Calm -- 30.42 in1030.1 mb 0.00 in0.0 mm 0.00 in0.0 mm 0.00 in0.0 mm
04:00 AM 32.2°F0.1°C 26.1°F-3.3°C 78% Calm Calm -- 30.43 in1030.5 mb 0.00 in0.0 mm 0.00 in0.0 mm 0.00 in0.0 mm
04:05 AM 32.2°F0.1°C 26.4°F-3.1°C 79% Calm Calm -- 30.43 in1030.5 mb 0.00 in0.0 mm 0.00 in0.0 mm 0.00 in0.0 mm
04:10 AM 32.1°F0.1°C 26.3°F-3.2°C 79% Calm Calm -- 30.43 in1030.5 mb 0.00 in0.0 mm 0.00 in0.0 mm 0.00 in0.0 mm
04:15 AM 32.0°F0.0°C 26.2°F-3.2°C 79% Calm Calm -- 30.43 in1030.5 mb 0.00 in0.0 mm 0.00 in0.0 mm 0.00 in0.0 mm
04:20 AM 31.9°F-0.1°C 26.1°F-3.3°C 79% Calm Calm -- 30.43 in1030.5 mb 0.00 in0.0 mm 0.00 in0.0 mm 0.00 in0.0 mm
04:25 AM 31.8°F-0.1°C 26.0°F-3.3°C 79% Calm Calm -- 30.43 in1030.5 mb 0.00 in0.0 mm 0.00 in0.0 mm 0.00 in0.0 mm
04:30 AM 31.7°F-0.2°C 25.9°F-3.4°C 79% Calm Calm -- 30.43 in1030.5 mb 0.00 in0.0 mm 0.00 in0.0 mm 0.00 in0.0 mm
04:35 AM 31.4°F-0.3°C 25.7°F-3.5°C 79% Calm Calm -- 30.43 in1030.5 mb 0.00 in0.0 mm 0.00 in0.0 mm 0.00 in0.0 mm
04:40 AM 31.3°F-0.4°C 25.9°F-3.4°C 80% Calm Calm -- 30.43 in1030.5 mb 0.00 in0.0 mm 0.00 in0.0 mm 0.00 in0.0 mm
04:45 AM 31.1°F-0.5°C 25.7°F-3.5°C 80% Calm Calm -- 30.43 in1030.5 mb 0.00 in0.0 mm 0.00 in0.0 mm 0.00 in0.0 mm
04:50 AM 30.8°F-0.7°C 25.4°F-3.7°C 80% Calm Calm -- 30.43 in1030.5 mb 0.00 in0.0 mm 0.00 in0.0 mm 0.00 in0.0 mm
04:55 AM 30.6°F-0.8°C 25.5°F-3.6°C 81% Calm Calm -- 30.43 in1030.5 mb 0.00 in0.0 mm 0.00 in0.0 mm 0.00 in0.0 mm
05:00 AM 30.4°F-0.9°C 25.3°F-3.7°C 81% Calm Calm -- 30.43 in1030.5 mb 0.00 in0.0 mm 0.00 in0.0 mm 0.00 in0.0 mm
05:05 AM 30.3°F-0.9°C 25.5°F-3.6°C 82% Calm Calm -- 30.43 in1030.5 mb 0.00 in0.0 mm 0.00 in0.0 mm 0.00 in0.0 mm
05:10 AM 30.3°F-0.9°C 25.5°F-3.6°C 82% Calm Calm -- 30.43 in1030.5 mb 0.00 in0.0 mm 0.00 in0.0 mm 0.00 in0.0 mm
05:15 AM 30.4°F-0.9°C 25.6°F-3.6°C 82% Calm Calm -- 30.43 in1030.5 mb 0.00 in0.0 mm 0.00 in0.0 mm 0.00 in0.0 mm
05:20 AM 30.5°F-0.8°C 25.7°F-3.5°C 82% Calm Calm -- 30.43 in1030.5 mb 0.00 in0.0 mm 0.00 in0.0 mm 0.00 in0.0 mm
05:25 AM 30.4°F-0.9°C 25.6°F-3.6°C 82% Calm Calm -- 30.43 in1030.5 mb 0.00 in0.0 mm 0.00 in0.0 mm 0.00 in0.0 mm
05:30 AM 30.2°F-1.0°C 25.4°F-3.7°C 82% Calm Calm -- 30.43 in1030.5 mb 0.00 in0.0 mm 0.00 in0.0 mm 0.00 in0.0 mm
05:35 AM 30.1°F-1.1°C 25.3°F-3.7°C 82% Calm Calm -- 30.43 in1030.5 mb 0.00 in0.0 mm 0.00 in0.0 mm 0.00 in0.0 mm
05:40 AM 30.0°F-1.1°C 25.2°F-3.8°C 82% Calm Calm -- 30.43 in1030.5 mb 0.00 in0.0 mm 0.00 in0.0 mm 0.00 in0.0 mm
05:45 AM 29.8°F-1.2°C 25.0°F-3.9°C 82% Calm Calm -- 30.44 in1030.8 mb 0.00 in0.0 mm 0.00 in0.0 mm 0.00 in0.0 mm
05:50 AM 29.7°F-1.3°C 25.2°F-3.8°C 83% Calm Calm -- 30.44 in1030.8 mb 0.00 in0.0 mm 0.00 in0.0 mm 0.00 in0.0 mm
05:55 AM 29.7°F-1.3°C 25.2°F-3.8°C 83% Calm Calm -- 30.43 in1030.5 mb 0.00 in0.0 mm 0.00 in0.0 mm 0.00 in0.0 mm
06:00 AM 29.5°F-1.4°C 25.0°F-3.9°C 83% Calm Calm -- 30.44 in1030.8 mb 0.00 in0.0 mm 0.00 in0.0 mm 0.00 in0.0 mm
06:05 AM 29.4°F-1.4°C 24.9°F-3.9°C 83% Calm Calm -- 30.44 in1030.8 mb 0.00 in0.0 mm 0.00 in0.0 mm 0.00 in0.0 mm
06:10 AM 29.2°F-1.6°C 24.7°F-4.1°C 83% Calm Calm -- 30.43 in1030.5 mb 0.00 in0.0 mm 0.00 in0.0 mm 0.00 in0.0 mm
06:15 AM 29.3°F-1.5°C 25.1°F-3.8°C 84% Calm Calm -- 30.43 in1030.5 mb 0.00 in0.0 mm 0.00 in0.0 mm 0.00 in0.0 mm
06:20 AM 29.3°F-1.5°C 25.1°F-3.8°C 84% Calm Calm -- 30.43 in1030.5 mb 0.00 in0.0 mm 0.00 in0.0 mm 0.00 in0.0 mm
06:25 AM 29.4°F-1.4°C 25.2°F-3.8°C 84% Calm Calm -- 30.43 in1030.5 mb 0.00 in0.0 mm 0.00 in0.0 mm 0.00 in0.0 mm
06:30 AM 29.4°F-1.4°C 25.2°F-3.8°C 84% Calm Calm -- 30.43 in1030.5 mb 0.00 in0.0 mm 0.00 in0.0 mm 0.00 in0.0 mm
06:35 AM 29.2°F-1.6°C 25.0°F-3.9°C 84% Calm Calm -- 30.43 in1030.5 mb 0.00 in0.0 mm 0.00 in0.0 mm 0.00 in0.0 mm
06:40 AM 29.0°F-1.7°C 24.8°F-4.0°C 84% Calm Calm -- 30.43 in1030.5 mb 0.00 in0.0 mm 0.00 in0.0 mm 0.00 in0.0 mm
06:45 AM 28.9°F-1.7°C 25.0°F-3.9°C 85% Calm Calm -- 30.44 in1030.8 mb 0.00 in0.0 mm 0.00 in0.0 mm 0.00 in0.0 mm
06:50 AM 29.0°F-1.7°C 25.1°F-3.8°C 85% Calm Calm -- 30.44 in1030.8 mb 0.00 in0.0 mm 0.00 in0.0 mm 0.00 in0.0 mm
06:55 AM 29.1°F-1.6°C 25.2°F-3.8°C 85% Calm Calm -- 30.44 in1030.8 mb 0.00 in0.0 mm 0.00 in0.0 mm 0.00 in0.0 mm
07:00 AM 29.0°F-1.7°C 25.1°F-3.8°C 85% Calm Calm -- 30.44 in1030.8 mb 0.00 in0.0 mm 0.00 in0.0 mm 0.00 in0.0 mm
07:05 AM 28.8°F-1.8°C 24.9°F-3.9°C 85% Calm Calm -- 30.44 in1030.8 mb 0.00 in0.0 mm 0.00 in0.0 mm 0.00 in0.0 mm
07:10 AM 28.8°F-1.8°C 25.2°F-3.8°C 86% Calm Calm -- 30.44 in1030.8 mb 0.00 in0.0 mm 0.00 in0.0 mm 0.00 in0.0 mm
07:15 AM 28.8°F-1.8°C 25.2°F-3.8°C 86% Calm Calm -- 30.44 in1030.8 mb 0.00 in0.0 mm 0.00 in0.0 mm 0.00 in0.0 mm
07:20 AM 28.8°F-1.8°C 25.2°F-3.8°C 86% Calm Calm -- 30.44 in1030.8 mb 0.00 in0.0 mm 0.00 in0.0 mm 0.00 in0.0 mm
07:25 AM 29.0°F-1.7°C 25.3°F-3.7°C 86% Calm Calm -- 30.44 in1030.8 mb 0.00 in0.0 mm 0.00 in0.0 mm 0.00 in0.0 mm
07:30 AM 29.1°F-1.6°C 25.4°F-3.7°C 86% Calm Calm -- 30.44 in1030.8 mb 0.00 in0.0 mm 0.00 in0.0 mm 0.00 in0.0 mm
07:35 AM 29.3°F-1.5°C 25.6°F-3.6°C 86% Calm Calm -- 30.44 in1030.8 mb 0.00 in0.0 mm 0.00 in0.0 mm 0.00 in0.0 mm
07:40 AM 29.5°F-1.4°C 25.8°F-3.4°C 86% Calm Calm -- 30.44 in1030.8 mb 0.00 in0.0 mm 0.00 in0.0 mm 0.00 in0.0 mm
07:45 AM 29.7°F-1.3°C 26.0°F-3.3°C 86% Calm Calm -- 30.44 in1030.8 mb 0.00 in0.0 mm 0.00 in0.0 mm 0.00 in0.0 mm
07:50 AM 29.8°F-1.2°C 26.1°F-3.3°C 86% Calm Calm -- 30.45 in1031.2 mb 0.00 in0.0 mm 0.00 in0.0 mm 0.00 in0.0 mm
07:55 AM 30.2°F-1.0°C 26.2°F-3.2°C 85% Calm Calm -- 30.45 in1031.2 mb 0.00 in0.0 mm 0.00 in0.0 mm 0.00 in0.0 mm
08:00 AM 30.5°F-0.8°C 26.5°F-3.1°C 85% Calm Calm -- 30.45 in1031.2 mb 0.00 in0.0 mm 0.00 in0.0 mm 0.00 in0.0 mm
08:05 AM 30.8°F-0.7°C 26.5°F-3.1°C 84% Calm Calm -- 30.44 in1030.8 mb 0.00 in0.0 mm 0.00 in0.0 mm 0.00 in0.0 mm
08:10 AM 31.3°F-0.4°C 26.7°F-2.9°C 83% Calm Calm -- 30.44 in1030.8 mb 0.00 in0.0 mm 0.00 in0.0 mm 0.00 in0.0 mm
08:15 AM 31.9°F-0.1°C 27.0°F-2.8°C 82% Calm Calm -- 30.45 in1031.2 mb 0.00 in0.0 mm 0.00 in0.0 mm 0.00 in0.0 mm
08:20 AM 32.6°F0.3°C 27.4°F-2.6°C 81% Calm Calm -- 30.45 in1031.2 mb 0.00 in0.0 mm 0.00 in0.0 mm 0.00 in0.0 mm
08:25 AM 33.1°F0.6°C 27.6°F-2.4°C 80% Calm Calm -- 30.45 in1031.2 mb 0.00 in0.0 mm 0.00 in0.0 mm 0.00 in0.0 mm
08:30 AM 33.8°F1.0°C 28.3°F-2.1°C 80% Calm Calm -- 30.46 in1031.5 mb 0.00 in0.0 mm 0.00 in0.0 mm 0.00 in0.0 mm
08:35 AM 34.6°F1.4°C 28.8°F-1.8°C 79% Calm Calm -- 30.46 in1031.5 mb 0.00 in0.0 mm 0.00 in0.0 mm 0.00 in0.0 mm
08:40 AM 34.7°F1.5°C 28.6°F-1.9°C 78% Calm Calm -- 30.46 in1031.5 mb 0.00 in0.0 mm 0.00 in0.0 mm 0.00 in0.0 mm
08:45 AM 34.9°F1.6°C 28.7°F-1.8°C 78% Calm Calm -- 30.46 in1031.5 mb 0.00 in0.0 mm 0.00 in0.0 mm 0.00 in0.0 mm
08:50 AM 35.7°F2.1°C 29.5°F-1.4°C 78% Calm Calm -- 30.46 in1031.5 mb 0.00 in0.0 mm 0.00 in0.0 mm 0.00 in0.0 mm
08:55 AM 36.2°F2.3°C 29.7°F-1.3°C 77% Calm Calm -- 30.46 in1031.5 mb 0.00 in0.0 mm 0.00 in0.0 mm 0.00 in0.0 mm
09:00 AM 36.2°F2.3°C 29.7°F-1.3°C 77% Calm Calm -- 30.47 in1031.8 mb 0.00 in0.0 mm 0.00 in0.0 mm 0.00 in0.0 mm
09:05 AM 36.2°F2.3°C 29.4°F-1.4°C 76% Calm Calm -- 30.47 in1031.8 mb 0.00 in0.0 mm 0.00 in0.0 mm 0.00 in0.0 mm
09:10 AM 37.2°F2.9°C 30.3°F-0.9°C 76% Calm Calm -- 30.47 in1031.8 mb 0.00 in0.0 mm 0.00 in0.0 mm 0.00 in0.0 mm
09:15 AM 37.2°F2.9°C 29.7°F-1.3°C 74% Calm Calm -- 30.47 in1031.8 mb 0.00 in0.0 mm 0.00 in0.0 mm 0.00 in0.0 mm
09:20 AM 37.6°F3.1°C 30.1°F-1.1°C 74% Calm Calm -- 30.47 in1031.8 mb 0.00 in0.0 mm 0.00 in0.0 mm 0.00 in0.0 mm
09:25 AM 38.5°F3.6°C 30.9°F-0.6°C 74% Calm Calm -- 30.47 in1031.8 mb 0.00 in0.0 mm 0.00 in0.0 mm 0.00 in0.0 mm
09:30 AM 38.0°F3.3°C 30.1°F-1.1°C 73% Calm Calm -- 30.47 in1031.8 mb 0.00 in0.0 mm 0.00 in0.0 mm 0.00 in0.0 mm
09:35 AM 38.3°F3.5°C 30.1°F-1.1°C 72% Calm Calm -- 30.47 in1031.8 mb 0.00 in0.0 mm 0.00 in0.0 mm 0.00 in0.0 mm
09:40 AM 38.9°F3.8°C 30.3°F-0.9°C 71% Calm Calm -- 30.47 in1031.8 mb 0.00 in0.0 mm 0.00 in0.0 mm 0.00 in0.0 mm
09:45 AM 39.6°F4.2°C 31.0°F-0.6°C 71% Calm Calm -- 30.47 in1031.8 mb 0.00 in0.0 mm 0.00 in0.0 mm 0.00 in0.0 mm
09:50 AM 39.6°F4.2°C 31.3°F-0.4°C 72% Calm Calm -- 30.47 in1031.8 mb 0.00 in0.0 mm 0.00 in0.0 mm 0.00 in0.0 mm
09:55 AM 40.2°F4.6°C 31.2°F-0.4°C 70% Calm Calm -- 30.47 in1031.8 mb 0.00 in0.0 mm 0.00 in0.0 mm 0.00 in0.0 mm
10:00 AM 40.6°F4.8°C 31.2°F-0.4°C 69% Calm Calm -- 30.47 in1031.8 mb 0.00 in0.0 mm 0.00 in0.0 mm 0.00 in0.0 mm
10:05 AM 41.1°F5.1°C 31.4°F-0.3°C 68% Calm Calm -- 30.47 in1031.8 mb 0.00 in0.0 mm 0.00 in0.0 mm 0.00 in0.0 mm
10:10 AM 41.7°F5.4°C 31.6°F-0.2°C 67% Calm Calm -- 30.48 in1032.2 mb 0.00 in0.0 mm 0.00 in0.0 mm 0.00 in0.0 mm
10:15 AM 41.5°F5.3°C 31.4°F-0.3°C 67% Calm Calm -- 30.48 in1032.2 mb 0.00 in0.0 mm 0.00 in0.0 mm 0.00 in0.0 mm
10:20 AM 41.5°F5.3°C 31.7°F-0.2°C 68% Calm Calm -- 30.47 in1031.8 mb 0.00 in0.0 mm 0.00 in0.0 mm 0.00 in0.0 mm
10:25 AM 41.5°F5.3°C 31.4°F-0.3°C 67% Calm Calm -- 30.47 in1031.8 mb 0.00 in0.0 mm 0.00 in0.0 mm 0.00 in0.0 mm
10:30 AM 41.5°F5.3°C 31.0°F-0.6°C 66% Calm Calm -- 30.47 in1031.8 mb 0.00 in0.0 mm 0.00 in0.0 mm 0.00 in0.0 mm
10:35 AM 42.4°F5.8°C 32.2°F0.1°C 67% Calm Calm -- 30.47 in1031.8 mb 0.00 in0.0 mm 0.00 in0.0 mm 0.00 in0.0 mm
10:40 AM 43.1°F6.2°C 31.8°F-0.1°C 64% Calm Calm -- 30.47 in1031.8 mb 0.00 in0.0 mm 0.00 in0.0 mm 0.00 in0.0 mm
10:45 AM 43.3°F6.3°C 32.3°F0.2°C 65% Calm Calm -- 30.46 in1031.5 mb 0.00 in0.0 mm 0.00 in0.0 mm 0.00 in0.0 mm
10:50 AM 43.2°F6.2°C 31.9°F-0.1°C 64% Calm Calm -- 30.46 in1031.5 mb 0.00 in0.0 mm 0.00 in0.0 mm 0.00 in0.0 mm
10:55 AM 44.5°F6.9°C 32.7°F0.4°C 63% Calm Calm -- 30.46 in1031.5 mb 0.00 in0.0 mm 0.00 in0.0 mm 0.00 in0.0 mm
11:00 AM 44.5°F6.9°C 31.9°F-0.1°C 61% Calm Calm -- 30.45 in1031.2 mb 0.00 in0.0 mm 0.00 in0.0 mm 0.00 in0.0 mm
11:05 AM 44.7°F7.1°C 32.5°F0.3°C 62% Calm Calm -- 30.45 in1031.2 mb 0.00 in0.0 mm 0.00 in0.0 mm 0.00 in0.0 mm
11:10 AM 45.1°F7.3°C 32.9°F0.5°C 62% Calm Calm -- 30.45 in1031.2 mb 0.00 in0.0 mm 0.00 in0.0 mm 0.00 in0.0 mm
11:15 AM 45.5°F7.5°C 33.2°F0.7°C 62% 1.0 mph SSW1.6 kmh SSW 5.0 mph8.0 kmh 30.45 in1031.2 mb 0.00 in0.0 mm 0.00 in0.0 mm 0.00 in0.0 mm
11:20 AM 45.8°F7.7°C 32.7°F0.4°C 60% 2.0 mph S3.2 kmh S 4.0 mph6.4 kmh 30.44 in1030.8 mb 0.00 in0.0 mm 0.00 in0.0 mm 0.00 in0.0 mm
11:25 AM 46.5°F8.1°C 33.0°F0.6°C 59% 1.0 mph S1.6 kmh S 5.0 mph8.0 kmh 30.44 in1030.8 mb 0.00 in0.0 mm 0.00 in0.0 mm 0.00 in0.0 mm
11:30 AM 46.3°F7.9°C 33.2°F0.7°C 60% 1.0 mph S1.6 kmh S 4.0 mph6.4 kmh 30.44 in1030.8 mb 0.00 in0.0 mm 0.00 in0.0 mm 0.00 in0.0 mm
11:35 AM 47.3°F8.5°C 33.7°F0.9°C 59% 1.0 mph S1.6 kmh S 4.0 mph6.4 kmh 30.43 in1030.5 mb 0.00 in0.0 mm 0.00 in0.0 mm 0.00 in0.0 mm
11:40 AM 46.9°F8.3°C 32.9°F0.5°C 58% 1.0 mph S1.6 kmh S 5.0 mph8.0 kmh 30.43 in1030.5 mb 0.00 in0.0 mm 0.00 in0.0 mm 0.00 in0.0 mm
11:45 AM 47.7°F8.7°C 33.2°F0.7°C 57% 1.0 mph S1.6 kmh S 5.0 mph8.0 kmh 30.43 in1030.5 mb 0.00 in0.0 mm 0.00 in0.0 mm 0.00 in0.0 mm
11:50 AM 48.3°F9.1°C 34.2°F1.2°C 58% 2.0 mph S3.2 kmh S 5.0 mph8.0 kmh 30.42 in1030.1 mb 0.00 in0.0 mm 0.00 in0.0 mm 0.00 in0.0 mm
11:55 AM 47.3°F8.5°C 33.3°F0.7°C 58% 1.0 mph S1.6 kmh S 5.0 mph8.0 kmh 30.42 in1030.1 mb 0.00 in0.0 mm 0.00 in0.0 mm 0.00 in0.0 mm
12:00 PM 48.4°F9.1°C 33.4°F0.8°C 56% 1.0 mph S1.6 kmh S 8.0 mph12.9 kmh 30.42 in1030.1 mb 0.00 in0.0 mm 0.00 in0.0 mm 0.00 in0.0 mm
12:05 PM 47.7°F8.7°C 33.2°F0.7°C 57% 1.0 mph S1.6 kmh S 3.0 mph4.8 kmh 30.41 in1029.8 mb 0.00 in0.0 mm 0.00 in0.0 mm 0.00 in0.0 mm
12:10 PM 49.0°F9.4°C 34.4°F1.3°C 57% 2.0 mph S3.2 kmh S 5.0 mph8.0 kmh 30.41 in1029.8 mb 0.00 in0.0 mm 0.00 in0.0 mm 0.00 in0.0 mm
12:15 PM 49.2°F9.6°C 33.3°F0.7°C 54% 2.0 mph S3.2 kmh S 4.0 mph6.4 kmh 30.41 in1029.8 mb 0.00 in0.0 mm 0.00 in0.0 mm 0.00 in0.0 mm
12:20 PM 49.9°F9.9°C 33.0°F0.6°C 52% 2.0 mph S3.2 kmh S 6.0 mph9.7 kmh 30.40 in1029.5 mb 0.00 in0.0 mm 0.00 in0.0 mm 0.00 in0.0 mm
12:25 PM 49.8°F9.9°C 32.9°F0.5°C 52% 2.0 mph S3.2 kmh S 4.0 mph6.4 kmh 30.40 in1029.5 mb 0.00 in0.0 mm 0.00 in0.0 mm 0.00 in0.0 mm
12:30 PM 49.5°F9.7°C 33.6°F0.9°C 54% 2.0 mph S3.2 kmh S 4.0 mph6.4 kmh 30.39 in1029.1 mb 0.00 in0.0 mm 0.00 in0.0 mm 0.00 in0.0 mm
12:35 PM 49.8°F9.9°C 33.4°F0.8°C 53% 2.0 mph S3.2 kmh S 6.0 mph9.7 kmh 30.39 in1029.1 mb 0.00 in0.0 mm 0.00 in0.0 mm 0.00 in0.0 mm
12:40 PM 50.5°F10.3°C 33.1°F0.6°C 51% 1.0 mph S1.6 kmh S 4.0 mph6.4 kmh 30.39 in1029.1 mb 0.00 in0.0 mm 0.00 in0.0 mm 0.00 in0.0 mm
12:45 PM 51.1°F10.6°C 33.1°F0.6°C 50% 2.0 mph S3.2 kmh S 8.0 mph12.9 kmh 30.39 in1029.1 mb 0.00 in0.0 mm 0.00 in0.0 mm 0.00 in0.0 mm
12:50 PM 51.6°F10.9°C 32.6°F0.3°C 48% 2.0 mph SE3.2 kmh SE 4.0 mph6.4 kmh 30.38 in1028.8 mb 0.00 in0.0 mm 0.00 in0.0 mm 0.00 in0.0 mm
12:55 PM 52.3°F11.3°C 33.2°F0.7°C 48% 2.0 mph SSW3.2 kmh SSW 5.0 mph8.0 kmh 30.38 in1028.8 mb 0.00 in0.0 mm 0.00 in0.0 mm 0.00 in0.0 mm
01:00 PM 51.1°F10.6°C 31.6°F-0.2°C 47% 3.0 mph S4.8 kmh S 8.0 mph12.9 kmh 30.38 in1028.8 mb 0.00 in0.0 mm 0.00 in0.0 mm 0.00 in0.0 mm
01:05 PM 51.8°F11.0°C 31.7°F-0.2°C 46% 1.0 mph S1.6 kmh S 6.0 mph9.7 kmh 30.37 in1028.4 mb 0.00 in0.0 mm 0.00 in0.0 mm 0.00 in0.0 mm
01:10 PM 51.5°F10.8°C 31.9°F-0.1°C 47% 3.0 mph S4.8 kmh S 8.0 mph12.9 kmh 30.37 in1028.4 mb 0.00 in0.0 mm 0.00 in0.0 mm 0.00 in0.0 mm
01:15 PM 51.6°F10.9°C 32.0°F0.0°C 47% 2.0 mph S3.2 kmh S 7.0 mph11.3 kmh 30.37 in1028.4 mb 0.00 in0.0 mm 0.00 in0.0 mm 0.00 in0.0 mm
01:20 PM 51.9°F11.1°C 32.3°F0.2°C 47% 3.0 mph SSW4.8 kmh SSW 7.0 mph11.3 kmh 30.37 in1028.4 mb 0.00 in0.0 mm 0.00 in0.0 mm 0.00 in0.0 mm
01:25 PM 52.3°F11.3°C 32.7°F0.4°C 47% 2.0 mph SSE3.2 kmh SSE 5.0 mph8.0 kmh 30.37 in1028.4 mb 0.00 in0.0 mm 0.00 in0.0 mm 0.00 in0.0 mm
01:30 PM 52.1°F11.2°C 32.5°F0.3°C 47% 2.0 mph SSE3.2 kmh SSE 5.0 mph8.0 kmh 30.36 in1028.1 mb 0.00 in0.0 mm 0.00 in0.0 mm 0.00 in0.0 mm
01:35 PM 51.5°F10.8°C 31.9°F-0.1°C 47% 2.0 mph SSW3.2 kmh SSW 7.0 mph11.3 kmh 30.36 in1028.1 mb 0.00 in0.0 mm 0.00 in0.0 mm 0.00 in0.0 mm
01:40 PM 52.0°F11.1°C 32.4°F0.2°C 47% 3.0 mph S4.8 kmh S 7.0 mph11.3 kmh 30.36 in1028.1 mb 0.00 in0.0 mm 0.00 in0.0 mm 0.00 in0.0 mm
01:45 PM 52.4°F11.3°C 32.8°F0.4°C 47% 3.0 mph S4.8 kmh S 6.0 mph9.7 kmh 30.36 in1028.1 mb 0.00 in0.0 mm 0.00 in0.0 mm 0.00 in0.0 mm
01:50 PM 52.3°F11.3°C 32.1°F0.1°C 46% 2.0 mph SSE3.2 kmh SSE 5.0 mph8.0 kmh 30.36 in1028.1 mb 0.00 in0.0 mm 0.00 in0.0 mm 0.00 in0.0 mm
01:55 PM 52.3°F11.3°C 32.7°F0.4°C 47% 2.0 mph SE3.2 kmh SE 5.0 mph8.0 kmh 30.35 in1027.8 mb 0.00 in0.0 mm 0.00 in0.0 mm 0.00 in0.0 mm
02:00 PM 52.7°F11.5°C 32.0°F0.0°C 45% 3.0 mph S4.8 kmh S 9.0 mph14.5 kmh 30.35 in1027.8 mb 0.00 in0.0 mm 0.00 in0.0 mm 0.00 in0.0 mm
02:05 PM 52.4°F11.3°C 32.8°F0.4°C 47% 2.0 mph S3.2 kmh S 4.0 mph6.4 kmh 30.35 in1027.8 mb 0.00 in0.0 mm 0.00 in0.0 mm 0.00 in0.0 mm
02:10 PM 52.4°F11.3°C 33.3°F0.7°C 48% 2.0 mph S3.2 kmh S 5.0 mph8.0 kmh 30.35 in1027.8 mb 0.00 in0.0 mm 0.00 in0.0 mm 0.00 in0.0 mm
02:15 PM 53.0°F11.7°C 33.3°F0.7°C 47% 2.0 mph S3.2 kmh S 8.0 mph12.9 kmh 30.34 in1027.4 mb 0.00 in0.0 mm 0.00 in0.0 mm 0.00 in0.0 mm
02:20 PM 53.2°F11.8°C 32.4°F0.2°C 45% 2.0 mph S3.2 kmh S 7.0 mph11.3 kmh 30.34 in1027.4 mb 0.00 in0.0 mm 0.00 in0.0 mm 0.00 in0.0 mm
02:25 PM 52.3°F11.3°C 32.7°F0.4°C 47% 3.0 mph S4.8 kmh S 5.0 mph8.0 kmh 30.34 in1027.4 mb 0.00 in0.0 mm 0.00 in0.0 mm 0.00 in0.0 mm
02:30 PM 51.7°F10.9°C 33.2°F0.7°C 49% 2.0 mph S3.2 kmh S 5.0 mph8.0 kmh 30.34 in1027.4 mb 0.00 in0.0 mm 0.00 in0.0 mm 0.00 in0.0 mm
02:35 PM 51.6°F10.9°C 32.0°F0.0°C 47% 3.0 mph S4.8 kmh S 6.0 mph9.7 kmh 30.33 in1027.1 mb 0.00 in0.0 mm 0.00 in0.0 mm 0.00 in0.0 mm
02:40 PM 51.7°F10.9°C 32.6°F0.3°C 48% 2.0 mph S3.2 kmh S 4.0 mph6.4 kmh 30.33 in1027.1 mb 0.00 in0.0 mm 0.00 in0.0 mm 0.00 in0.0 mm
02:45 PM 51.5°F10.8°C 33.0°F0.6°C 49% 1.0 mph SE1.6 kmh SE 4.0 mph6.4 kmh 30.33 in1027.1 mb 0.00 in0.0 mm 0.00 in0.0 mm 0.00 in0.0 mm
02:50 PM 51.8°F11.0°C 32.7°F0.4°C 48% 2.0 mph SE3.2 kmh SE 8.0 mph12.9 kmh 30.33 in1027.1 mb 0.00 in0.0 mm 0.00 in0.0 mm 0.00 in0.0 mm
02:55 PM 51.7°F10.9°C 32.6°F0.3°C 48% 2.0 mph SE3.2 kmh SE 8.0 mph12.9 kmh 30.33 in1027.1 mb 0.00 in0.0 mm 0.00 in0.0 mm 0.00 in0.0 mm
03:00 PM 51.5°F10.8°C 33.0°F0.6°C 49% 2.0 mph S3.2 kmh S 6.0 mph9.7 kmh 30.33 in1027.1 mb 0.00 in0.0 mm 0.00 in0.0 mm 0.00 in0.0 mm
03:05 PM 51.7°F10.9°C 33.7°F0.9°C 50% 2.0 mph SSW3.2 kmh SSW 4.0 mph6.4 kmh 30.32 in1026.8 mb 0.00 in0.0 mm 0.00 in0.0 mm 0.00 in0.0 mm
03:10 PM 51.9°F11.1°C 33.3°F0.7°C 49% 2.0 mph SSE3.2 kmh SSE 5.0 mph8.0 kmh 30.32 in1026.8 mb 0.00 in0.0 mm 0.00 in0.0 mm 0.00 in0.0 mm
03:15 PM 52.0°F11.1°C 33.4°F0.8°C 49% 2.0 mph S3.2 kmh S 7.0 mph11.3 kmh 30.32 in1026.8 mb 0.00 in0.0 mm 0.00 in0.0 mm 0.00 in0.0 mm
03:20 PM 51.7°F10.9°C 33.2°F0.7°C 49% 2.0 mph SSE3.2 kmh SSE 5.0 mph8.0 kmh 30.32 in1026.8 mb 0.00 in0.0 mm 0.00 in0.0 mm 0.00 in0.0 mm
03:25 PM 51.7°F10.9°C 33.2°F0.7°C 49% 2.0 mph SSE3.2 kmh SSE 5.0 mph8.0 kmh 30.32 in1026.8 mb 0.00 in0.0 mm 0.00 in0.0 mm 0.00 in0.0 mm
03:30 PM 51.7°F10.9°C 33.7°F0.9°C 50% 3.0 mph S4.8 kmh S 8.0 mph12.9 kmh 30.31 in1026.4 mb 0.00 in0.0 mm 0.00 in0.0 mm 0.00 in0.0 mm
03:35 PM 51.8°F11.0°C 33.3°F0.7°C 49% 2.0 mph ESE3.2 kmh ESE 7.0 mph11.3 kmh 30.31 in1026.4 mb 0.00 in0.0 mm 0.00 in0.0 mm 0.00 in0.0 mm
03:40 PM 51.7°F10.9°C 33.7°F0.9°C 50% 2.0 mph S3.2 kmh S 6.0 mph9.7 kmh 30.31 in1026.4 mb 0.00 in0.0 mm 0.00 in0.0 mm 0.00 in0.0 mm
03:45 PM 51.6°F10.9°C 33.6°F0.9°C 50% 1.0 mph SSE1.6 kmh SSE 5.0 mph8.0 kmh 30.31 in1026.4 mb 0.00 in0.0 mm 0.00 in0.0 mm 0.00 in0.0 mm
03:50 PM 51.5°F10.8°C 33.5°F0.8°C 50% 2.0 mph SE3.2 kmh SE 5.0 mph8.0 kmh 30.31 in1026.4 mb 0.00 in0.0 mm 0.00 in0.0 mm 0.00 in0.0 mm
03:55 PM 51.4°F10.8°C 33.4°F0.8°C 50% 2.0 mph SSE3.2 kmh SSE 5.0 mph8.0 kmh 30.31 in1026.4 mb 0.00 in0.0 mm 0.00 in0.0 mm 0.00 in0.0 mm
04:00 PM 51.7°F10.9°C 33.7°F0.9°C 50% 1.0 mph SSE1.6 kmh SSE 5.0 mph8.0 kmh 30.31 in1026.4 mb 0.00 in0.0 mm 0.00 in0.0 mm 0.00 in0.0 mm
04:05 PM 51.6°F10.9°C 33.6°F0.9°C 50% 2.0 mph SSW3.2 kmh SSW 4.0 mph6.4 kmh 30.31 in1026.4 mb 0.00 in0.0 mm 0.00 in0.0 mm 0.00 in0.0 mm
04:10 PM 51.3°F10.7°C 33.8°F1.0°C 51% 1.0 mph SE1.6 kmh SE 4.0 mph6.4 kmh 30.31 in1026.4 mb 0.00 in0.0 mm 0.00 in0.0 mm 0.00 in0.0 mm
04:15 PM 51.2°F10.7°C 33.7°F0.9°C 51% 2.0 mph S3.2 kmh S 5.0 mph8.0 kmh 30.30 in1026.1 mb 0.00 in0.0 mm 0.00 in0.0 mm 0.00 in0.0 mm
04:20 PM 51.1°F10.6°C 34.1°F1.2°C 52% 2.0 mph S3.2 kmh S 4.0 mph6.4 kmh 30.31 in1026.4 mb 0.00 in0.0 mm 0.00 in0.0 mm 0.00 in0.0 mm
04:25 PM 50.9°F10.5°C 33.9°F1.1°C 52% 1.0 mph SSE1.6 kmh SSE 7.0 mph11.3 kmh 30.30 in1026.1 mb 0.00 in0.0 mm 0.00 in0.0 mm 0.00 in0.0 mm
04:30 PM 50.9°F10.5°C 33.9°F1.1°C 52% 1.0 mph SSE1.6 kmh SSE 3.0 mph4.8 kmh 30.30 in1026.1 mb 0.00 in0.0 mm 0.00 in0.0 mm 0.00 in0.0 mm
04:35 PM 50.7°F10.4°C 33.2°F0.7°C 51% 1.0 mph SSE1.6 kmh SSE 4.0 mph6.4 kmh 30.30 in1026.1 mb 0.00 in0.0 mm 0.00 in0.0 mm 0.00 in0.0 mm
04:40 PM 50.6°F10.3°C 33.6°F0.9°C 52% 1.0 mph S1.6 kmh S 5.0 mph8.0 kmh 30.30 in1026.1 mb 0.00 in0.0 mm 0.00 in0.0 mm 0.00 in0.0 mm
04:45 PM 50.4°F10.2°C 33.4°F0.8°C 52% 2.0 mph S3.2 kmh S 4.0 mph6.4 kmh 30.29 in1025.7 mb 0.00 in0.0 mm 0.00 in0.0 mm 0.00 in0.0 mm
04:50 PM 50.1°F10.1°C 33.6°F0.9°C 53% 1.0 mph S1.6 kmh S 5.0 mph8.0 kmh 30.29 in1025.7 mb 0.00 in0.0 mm 0.00 in0.0 mm 0.00 in0.0 mm
04:55 PM 50.1°F10.1°C 33.6°F0.9°C 53% 2.0 mph SSE3.2 kmh SSE 4.0 mph6.4 kmh 30.29 in1025.7 mb 0.00 in0.0 mm 0.00 in0.0 mm 0.00 in0.0 mm
05:00 PM 49.9°F9.9°C 33.5°F0.8°C 53% 1.0 mph SSE1.6 kmh SSE 4.0 mph6.4 kmh 30.28 in1025.4 mb 0.00 in0.0 mm 0.00 in0.0 mm 0.00 in0.0 mm
05:05 PM 49.8°F9.9°C 33.8°F1.0°C 54% 1.0 mph S1.6 kmh S 4.0 mph6.4 kmh 30.28 in1025.4 mb 0.00 in0.0 mm 0.00 in0.0 mm 0.00 in0.0 mm
05:10 PM 49.5°F9.7°C 33.6°F0.9°C 54% Calm Calm 1.0 mph1.6 kmh 30.28 in1025.4 mb 0.00 in0.0 mm 0.00 in0.0 mm 0.00 in0.0 mm
05:15 PM 49.3°F9.6°C 33.4°F0.8°C 54% 1.0 mph S1.6 kmh S 2.0 mph3.2 kmh 30.28 in1025.4 mb 0.00 in0.0 mm 0.00 in0.0 mm 0.00 in0.0 mm
05:20 PM 49.2°F9.6°C 33.7°F0.9°C 55% 1.0 mph S1.6 kmh S 4.0 mph6.4 kmh 30.28 in1025.4 mb 0.00 in0.0 mm 0.00 in0.0 mm 0.00 in0.0 mm
05:25 PM 49.1°F9.5°C 33.6°F0.9°C 55% 1.0 mph S1.6 kmh S 2.0 mph3.2 kmh 30.28 in1025.4 mb 0.00 in0.0 mm 0.00 in0.0 mm 0.00 in0.0 mm
05:30 PM 48.9°F9.4°C 33.5°F0.8°C 55% Calm Calm -- 30.28 in1025.4 mb 0.00 in0.0 mm 0.00 in0.0 mm 0.00 in0.0 mm
05:35 PM 48.8°F9.3°C 33.4°F0.8°C 55% Calm Calm -- 30.28 in1025.4 mb 0.00 in0.0 mm 0.00 in0.0 mm 0.00 in0.0 mm
05:40 PM 48.6°F9.2°C 33.6°F0.9°C 56% Calm Calm -- 30.28 in1025.4 mb 0.00 in0.0 mm 0.00 in0.0 mm 0.00 in0.0 mm
05:45 PM 48.6°F9.2°C 33.6°F0.9°C 56% Calm Calm -- 30.28 in1025.4 mb 0.00 in0.0 mm 0.00 in0.0 mm 0.00 in0.0 mm
05:50 PM 48.5°F9.2°C 34.0°F1.1°C 57% Calm Calm -- 30.28 in1025.4 mb 0.00 in0.0 mm 0.00 in0.0 mm 0.00 in0.0 mm
05:55 PM 48.3°F9.1°C 33.8°F1.0°C 57% Calm Calm -- 30.29 in1025.7 mb 0.00 in0.0 mm 0.00 in0.0 mm 0.00 in0.0 mm
06:00 PM 48.3°F9.1°C 33.8°F1.0°C 57% Calm Calm -- 30.29 in1025.7 mb 0.00 in0.0 mm 0.00 in0.0 mm 0.00 in0.0 mm
06:05 PM 48.4°F9.1°C 33.9°F1.1°C 57% 1.0 mph ESE1.6 kmh ESE 4.0 mph6.4 kmh 30.28 in1025.4 mb 0.00 in0.0 mm 0.00 in0.0 mm 0.00 in0.0 mm
06:10 PM 48.4°F9.1°C 33.9°F1.1°C 57% 1.0 mph S1.6 kmh S 5.0 mph8.0 kmh 30.28 in1025.4 mb 0.00 in0.0 mm 0.00 in0.0 mm 0.00 in0.0 mm
06:15 PM 48.4°F9.1°C 33.9°F1.1°C 57% 1.0 mph S1.6 kmh S 4.0 mph6.4 kmh 30.28 in1025.4 mb 0.00 in0.0 mm 0.00 in0.0 mm 0.00 in0.0 mm
06:20 PM 48.3°F9.1°C 33.8°F1.0°C 57% 1.0 mph S1.6 kmh S 3.0 mph4.8 kmh 30.28 in1025.4 mb 0.00 in0.0 mm 0.00 in0.0 mm 0.00 in0.0 mm
06:25 PM 48.2°F9.0°C 33.7°F0.9°C 57% 1.0 mph S1.6 kmh S 5.0 mph8.0 kmh 30.28 in1025.4 mb 0.00 in0.0 mm 0.00 in0.0 mm 0.00 in0.0 mm
06:30 PM 48.2°F9.0°C 33.7°F0.9°C 57% 1.0 mph SE1.6 kmh SE 3.0 mph4.8 kmh 30.28 in1025.4 mb 0.00 in0.0 mm 0.00 in0.0 mm 0.00 in0.0 mm
06:35 PM 48.1°F8.9°C 33.6°F0.9°C 57% 1.0 mph SSE1.6 kmh SSE 3.0 mph4.8 kmh 30.28 in1025.4 mb 0.00 in0.0 mm 0.00 in0.0 mm 0.00 in0.0 mm
06:40 PM 48.1°F8.9°C 33.2°F0.7°C 56% 1.0 mph S1.6 kmh S 6.0 mph9.7 kmh 30.28 in1025.4 mb 0.00 in0.0 mm 0.00 in0.0 mm 0.00 in0.0 mm
06:45 PM 48.0°F8.9°C 33.1°F0.6°C 56% 1.0 mph SSE1.6 kmh SSE 5.0 mph8.0 kmh 30.28 in1025.4 mb 0.00 in0.0 mm 0.00 in0.0 mm 0.00 in0.0 mm
06:50 PM 48.0°F8.9°C 33.1°F0.6°C 56% 1.0 mph SSE1.6 kmh SSE 5.0 mph8.0 kmh 30.28 in1025.4 mb 0.00 in0.0 mm 0.00 in0.0 mm 0.00 in0.0 mm
06:55 PM 47.9°F8.8°C 33.0°F0.6°C 56% Calm Calm 3.0 mph4.8 kmh 30.28 in1025.4 mb 0.00 in0.0 mm 0.00 in0.0 mm 0.00 in0.0 mm
07:00 PM 47.8°F8.8°C 33.3°F0.7°C 57% Calm Calm -- 30.27 in1025.1 mb 0.00 in0.0 mm 0.00 in0.0 mm 0.00 in0.0 mm
07:05 PM 47.8°F8.8°C 33.3°F0.7°C 57% 1.0 mph SSE1.6 kmh SSE 4.0 mph6.4 kmh 30.28 in1025.4 mb 0.00 in0.0 mm 0.00 in0.0 mm 0.00 in0.0 mm
07:10 PM 47.7°F8.7°C 33.2°F0.7°C 57% Calm Calm 3.0 mph4.8 kmh 30.27 in1025.1 mb 0.00 in0.0 mm 0.00 in0.0 mm 0.00 in0.0 mm
07:15 PM 47.6°F8.7°C 33.1°F0.6°C 57% 1.0 mph SE1.6 kmh SE 2.0 mph3.2 kmh 30.27 in1025.1 mb 0.00 in0.0 mm 0.00 in0.0 mm 0.00 in0.0 mm
07:20 PM 47.6°F8.7°C 33.1°F0.6°C 57% 1.0 mph SE1.6 kmh SE 3.0 mph4.8 kmh 30.27 in1025.1 mb 0.00 in0.0 mm 0.00 in0.0 mm 0.00 in0.0 mm
07:25 PM 47.6°F8.7°C 33.1°F0.6°C 57% Calm Calm 3.0 mph4.8 kmh 30.27 in1025.1 mb 0.00 in0.0 mm 0.00 in0.0 mm 0.00 in0.0 mm
07:30 PM 47.6°F8.7°C 33.1°F0.6°C 57% 1.0 mph SE1.6 kmh SE 5.0 mph8.0 kmh 30.27 in1025.1 mb 0.00 in0.0 mm 0.00 in0.0 mm 0.00 in0.0 mm
07:35 PM 47.5°F8.6°C 33.5°F0.8°C 58% Calm Calm 2.0 mph3.2 kmh 30.27 in1025.1 mb 0.00 in0.0 mm 0.00 in0.0 mm 0.00 in0.0 mm
07:40 PM 47.5°F8.6°C 33.5°F0.8°C 58% 1.0 mph ESE1.6 kmh ESE 5.0 mph8.0 kmh 30.26 in1024.7 mb 0.00 in0.0 mm 0.00 in0.0 mm 0.00 in0.0 mm
07:45 PM 47.5°F8.6°C 33.5°F0.8°C 58% 1.0 mph S1.6 kmh S 6.0 mph9.7 kmh 30.27 in1025.1 mb 0.00 in0.0 mm 0.00 in0.0 mm 0.00 in0.0 mm
07:50 PM 47.6°F8.7°C 34.0°F1.1°C 59% 2.0 mph SSE3.2 kmh SSE 5.0 mph8.0 kmh 30.27 in1025.1 mb 0.00 in0.0 mm 0.00 in0.0 mm 0.00 in0.0 mm
07:55 PM 47.6°F8.7°C 34.0°F1.1°C 59% 1.0 mph SSW1.6 kmh SSW 5.0 mph8.0 kmh 30.27 in1025.1 mb 0.00 in0.0 mm 0.00 in0.0 mm 0.00 in0.0 mm
08:00 PM 47.6°F8.7°C 34.0°F1.1°C 59% 1.0 mph S1.6 kmh S 3.0 mph4.8 kmh 30.27 in1025.1 mb 0.00 in0.0 mm 0.00 in0.0 mm 0.00 in0.0 mm
08:05 PM 47.5°F8.6°C 33.9°F1.1°C 59% Calm Calm 2.0 mph3.2 kmh 30.27 in1025.1 mb 0.00 in0.0 mm 0.00 in0.0 mm 0.00 in0.0 mm
08:10 PM 47.4°F8.6°C 33.8°F1.0°C 59% 1.0 mph S1.6 kmh S 5.0 mph8.0 kmh 30.27 in1025.1 mb 0.00 in0.0 mm 0.00 in0.0 mm 0.00 in0.0 mm
08:15 PM 47.3°F8.5°C 34.1°F1.2°C 60% 1.0 mph S1.6 kmh S 3.0 mph4.8 kmh 30.27 in1025.1 mb 0.00 in0.0 mm 0.00 in0.0 mm 0.00 in0.0 mm
08:20 PM 47.3°F8.5°C 34.1°F1.2°C 60% 1.0 mph S1.6 kmh S 4.0 mph6.4 kmh 30.27 in1025.1 mb 0.00 in0.0 mm 0.00 in0.0 mm 0.00 in0.0 mm
08:25 PM 47.3°F8.5°C 34.1°F1.2°C 60% 1.0 mph S1.6 kmh S 5.0 mph8.0 kmh 30.27 in1025.1 mb 0.00 in0.0 mm 0.00 in0.0 mm 0.00 in0.0 mm
08:30 PM 47.3°F8.5°C 34.1°F1.2°C 60% 1.0 mph SW1.6 kmh SW 4.0 mph6.4 kmh 30.27 in1025.1 mb 0.00 in0.0 mm 0.00 in0.0 mm 0.00 in0.0 mm
08:35 PM 47.3°F8.5°C 34.1°F1.2°C 60% 1.0 mph SW1.6 kmh SW 3.0 mph4.8 kmh 30.27 in1025.1 mb 0.00 in0.0 mm 0.00 in0.0 mm 0.00 in0.0 mm
08:40 PM 47.3°F8.5°C 34.1°F1.2°C 60% 1.0 mph SSW1.6 kmh SSW 4.0 mph6.4 kmh 30.26 in1024.7 mb 0.00 in0.0 mm 0.00 in0.0 mm 0.00 in0.0 mm
08:45 PM 47.3°F8.5°C 34.5°F1.4°C 61% 1.0 mph SE1.6 kmh SE 2.0 mph3.2 kmh 30.26 in1024.7 mb 0.00 in0.0 mm 0.00 in0.0 mm 0.00 in0.0 mm
08:50 PM 47.2°F8.4°C 34.4°F1.3°C 61% 1.0 mph SE1.6 kmh SE 4.0 mph6.4 kmh 30.27 in1025.1 mb 0.00 in0.0 mm 0.00 in0.0 mm 0.00 in0.0 mm
08:55 PM 47.2°F8.4°C 34.4°F1.3°C 61% Calm Calm 4.0 mph6.4 kmh 30.27 in1025.1 mb 0.00 in0.0 mm 0.00 in0.0 mm 0.00 in0.0 mm
09:00 PM 47.0°F8.3°C 34.3°F1.3°C 61% Calm Calm 3.0 mph4.8 kmh 30.26 in1024.7 mb 0.00 in0.0 mm 0.00 in0.0 mm 0.00 in0.0 mm
09:05 PM 47.0°F8.3°C 34.7°F1.5°C 62% 1.0 mph S1.6 kmh S 5.0 mph8.0 kmh 30.26 in1024.7 mb 0.00 in0.0 mm 0.00 in0.0 mm 0.00 in0.0 mm
09:10 PM 46.9°F8.3°C 34.6°F1.4°C 62% 1.0 mph S1.6 kmh S 3.0 mph4.8 kmh 30.26 in1024.7 mb 0.00 in0.0 mm 0.00 in0.0 mm 0.00 in0.0 mm
09:15 PM 46.9°F8.3°C 34.6°F1.4°C 62% 2.0 mph S3.2 kmh S 5.0 mph8.0 kmh 30.26 in1024.7 mb 0.00 in0.0 mm 0.00 in0.0 mm 0.00 in0.0 mm
09:20 PM 46.8°F8.2°C 34.9°F1.6°C 63% 2.0 mph S3.2 kmh S 5.0 mph8.0 kmh 30.26 in1024.7 mb 0.00 in0.0 mm 0.00 in0.0 mm 0.00 in0.0 mm
09:25 PM 46.7°F8.2°C 34.8°F1.6°C 63% 2.0 mph S3.2 kmh S 6.0 mph9.7 kmh 30.26 in1024.7 mb 0.00 in0.0 mm 0.00 in0.0 mm 0.00 in0.0 mm
09:30 PM 46.6°F8.1°C 34.7°F1.5°C 63% 1.0 mph S1.6 kmh S 3.0 mph4.8 kmh 30.26 in1024.7 mb 0.00 in0.0 mm 0.00 in0.0 mm 0.00 in0.0 mm
09:35 PM 46.5°F8.1°C 35.0°F1.7°C 64% Calm Calm -- 30.26 in1024.7 mb 0.00 in0.0 mm 0.00 in0.0 mm 0.00 in0.0 mm
09:40 PM 46.4°F8.0°C 34.9°F1.6°C 64% 1.0 mph S1.6 kmh S 9.0 mph14.5 kmh 30.26 in1024.7 mb 0.00 in0.0 mm 0.00 in0.0 mm 0.00 in0.0 mm
09:45 PM 46.3°F7.9°C 34.8°F1.6°C 64% 2.0 mph S3.2 kmh S 5.0 mph8.0 kmh 30.25 in1024.4 mb 0.00 in0.0 mm 0.00 in0.0 mm 0.00 in0.0 mm
09:50 PM 46.3°F7.9°C 35.2°F1.8°C 65% Calm Calm 5.0 mph8.0 kmh 30.25 in1024.4 mb 0.00 in0.0 mm 0.00 in0.0 mm 0.00 in0.0 mm
09:55 PM 46.2°F7.9°C 35.1°F1.7°C 65% 1.0 mph S1.6 kmh S 4.0 mph6.4 kmh 30.25 in1024.4 mb 0.00 in0.0 mm 0.00 in0.0 mm 0.00 in0.0 mm
10:00 PM 46.2°F7.9°C 35.1°F1.7°C 65% 1.0 mph S1.6 kmh S 4.0 mph6.4 kmh 30.25 in1024.4 mb 0.00 in0.0 mm 0.00 in0.0 mm 0.00 in0.0 mm
10:05 PM 46.2°F7.9°C 35.1°F1.7°C 65% 1.0 mph S1.6 kmh S 6.0 mph9.7 kmh 30.25 in1024.4 mb 0.00 in0.0 mm 0.00 in0.0 mm 0.00 in0.0 mm
10:10 PM 46.2°F7.9°C 35.1°F1.7°C 65% 2.0 mph ESE3.2 kmh ESE 6.0 mph9.7 kmh 30.25 in1024.4 mb 0.00 in0.0 mm 0.00 in0.0 mm 0.00 in0.0 mm
10:15 PM 46.2°F7.9°C 35.1°F1.7°C 65% 1.0 mph S1.6 kmh S 6.0 mph9.7 kmh 30.25 in1024.4 mb 0.00 in0.0 mm 0.00 in0.0 mm 0.00 in0.0 mm
10:20 PM 46.2°F7.9°C 35.1°F1.7°C 65% 1.0 mph S1.6 kmh S 5.0 mph8.0 kmh 30.25 in1024.4 mb 0.00 in0.0 mm 0.00 in0.0 mm 0.00 in0.0 mm
10:25 PM 46.3°F7.9°C 35.2°F1.8°C 65% 1.0 mph S1.6 kmh S 3.0 mph4.8 kmh 30.25 in1024.4 mb 0.00 in0.0 mm 0.00 in0.0 mm 0.00 in0.0 mm
10:30 PM 46.3°F7.9°C 35.2°F1.8°C 65% 2.0 mph S3.2 kmh S 5.0 mph8.0 kmh 30.25 in1024.4 mb 0.00 in0.0 mm 0.00 in0.0 mm 0.00 in0.0 mm
10:35 PM 46.3°F7.9°C 35.2°F1.8°C 65% 2.0 mph S3.2 kmh S 7.0 mph11.3 kmh 30.25 in1024.4 mb 0.00 in0.0 mm 0.00 in0.0 mm 0.00 in0.0 mm
10:40 PM 46.4°F8.0°C 35.3°F1.8°C 65% 2.0 mph S3.2 kmh S 6.0 mph9.7 kmh 30.25 in1024.4 mb 0.00 in0.0 mm 0.00 in0.0 mm 0.00 in0.0 mm
10:45 PM 46.3°F7.9°C 35.2°F1.8°C 65% 1.0 mph S1.6 kmh S 3.0 mph4.8 kmh 30.26 in1024.7 mb 0.00 in0.0 mm 0.00 in0.0 mm 0.00 in0.0 mm
10:50 PM 46.3°F7.9°C 35.2°F1.8°C 65% 1.0 mph S1.6 kmh S 5.0 mph8.0 kmh 30.25 in1024.4 mb 0.00 in0.0 mm 0.00 in0.0 mm 0.00 in0.0 mm
10:55 PM 46.3°F7.9°C 35.2°F1.8°C 65% 1.0 mph S1.6 kmh S 6.0 mph9.7 kmh 30.25 in1024.4 mb 0.00 in0.0 mm 0.00 in0.0 mm 0.00 in0.0 mm
11:00 PM 46.3°F7.9°C 35.2°F1.8°C 65% 2.0 mph S3.2 kmh S 6.0 mph9.7 kmh 30.25 in1024.4 mb 0.00 in0.0 mm 0.00 in0.0 mm 0.00 in0.0 mm
11:05 PM 46.3°F7.9°C 35.6°F2.0°C 66% 1.0 mph S1.6 kmh S 6.0 mph9.7 kmh 30.25 in1024.4 mb 0.00 in0.0 mm 0.00 in0.0 mm 0.00 in0.0 mm
11:10 PM 46.4°F8.0°C 35.7°F2.1°C 66% Calm Calm 5.0 mph8.0 kmh 30.25 in1024.4 mb 0.00 in0.0 mm 0.00 in0.0 mm 0.00 in0.0 mm
11:15 PM 46.4°F8.0°C 35.7°F2.1°C 66% 2.0 mph S3.2 kmh S 5.0 mph8.0 kmh 30.25 in1024.4 mb 0.00 in0.0 mm 0.00 in0.0 mm 0.00 in0.0 mm
11:20 PM 46.4°F8.0°C 35.7°F2.1°C 66% 1.0 mph S1.6 kmh S 3.0 mph4.8 kmh 30.25 in1024.4 mb 0.00 in0.0 mm 0.00 in0.0 mm 0.00 in0.0 mm
11:25 PM 46.4°F8.0°C 35.7°F2.1°C 66% Calm Calm 3.0 mph4.8 kmh 30.25 in1024.4 mb 0.00 in0.0 mm 0.00 in0.0 mm 0.00 in0.0 mm
11:30 PM 46.3°F7.9°C 35.6°F2.0°C 66% Calm Calm 4.0 mph6.4 kmh 30.25 in1024.4 mb 0.00 in0.0 mm 0.00 in0.0 mm 0.00 in0.0 mm
11:35 PM 46.3°F7.9°C 35.6°F2.0°C 66% Calm Calm -- 30.25 in1024.4 mb 0.00 in0.0 mm 0.00 in0.0 mm 0.00 in0.0 mm
11:40 PM 46.3°F7.9°C 35.6°F2.0°C 66% Calm Calm -- 30.25 in1024.4 mb 0.00 in0.0 mm 0.00 in0.0 mm 0.00 in0.0 mm
11:45 PM 46.4°F8.0°C 35.7°F2.1°C 66% Calm Calm -- 30.26 in1024.7 mb 0.00 in0.0 mm 0.00 in0.0 mm 0.00 in0.0 mm
11:50 PM 46.5°F8.1°C 35.8°F2.1°C 66% Calm Calm -- 30.25 in1024.4 mb 0.00 in0.0 mm 0.00 in0.0 mm 0.00 in0.0 mm
11:55 PM 46.5°F8.1°C 35.8°F2.1°C 66% Calm Calm 5.0 mph8.0 kmh 30.25 in1024.4 mb 0.00 in0.0 mm 0.00 in0.0 mm 0.00 in0.0 mm